createdAt,value
2023-04-01T00:00:19.663Z,98903.66
2023-04-01T00:03:04.578Z,98900.19
2023-04-01T00:05:50.136Z,98901.44
2023-04-01T00:08:35.298Z,98906.50
2023-04-01T00:11:20.461Z,98900.00
2023-04-01T00:14:06.719Z,98901.63
2023-04-01T00:16:51.574Z,98894.72
2023-04-01T00:19:36.539Z,98900.38
2023-04-01T00:22:22.940Z,98894.72
2023-04-01T00:25:08.310Z,98898.16
2023-04-01T00:27:53.498Z,98897.13
2023-04-01T00:30:38.667Z,98896.53
2023-04-01T00:33:23.575Z,98891.44
2023-04-01T00:36:14.844Z,98892.25
2023-04-01T00:39:00.265Z,98898.59
2023-04-01T00:41:45.501Z,98889.81
2023-04-01T00:44:33.729Z,98889.59
2023-04-01T00:47:19.120Z,98891.22
2023-04-01T00:50:04.452Z,98880.44
2023-04-01T00:52:49.389Z,98888.59
2023-04-01T00:55:38.369Z,98890.41
2023-04-01T00:58:25.441Z,98884.53
2023-04-01T01:01:10.972Z,98880.25
2023-04-01T01:03:55.931Z,98870.47
2023-04-01T01:07:18.332Z,98880.25
2023-04-01T01:10:24.423Z,98885.31
2023-04-01T01:13:20.953Z,98875.75
2023-04-01T01:16:17.501Z,98881.84
2023-04-01T01:19:05.923Z,98887.97
2023-04-01T01:22:28.704Z,98876.34
2023-04-01T01:25:31.709Z,98883.72
2023-04-01T01:28:28.974Z,98881.84
2023-04-01T01:31:36.459Z,98883.91
2023-04-01T01:34:29.460Z,98876.56
2023-04-01T01:37:17.199Z,98882.47
2023-04-01T01:40:07.962Z,98870.25
2023-04-01T01:42:57.555Z,98869.63
2023-04-01T01:45:50.222Z,98874.13
2023-04-01T01:48:37.116Z,98873.09
2023-04-01T01:51:23.735Z,98868.03
2023-04-01T01:54:13.190Z,98869.22
2023-04-01T01:57:07.507Z,98866.56
2023-04-01T01:59:57.532Z,98871.06
2023-04-01T02:02:45.684Z,98870.06
2023-04-01T02:05:32.049Z,98870.06
2023-04-01T02:08:27.364Z,98874.34
2023-04-01T02:11:22.453Z,98878.22
2023-04-01T02:14:14.476Z,98877.56
2023-04-01T02:17:06.517Z,98880.41
2023-04-01T02:19:56.727Z,98880.59
2023-04-01T02:22:49.565Z,98869.63
2023-04-01T02:25:37.263Z,98880.41
2023-04-01T02:28:24.403Z,98886.50
2023-04-01T02:31:14.948Z,98886.91
2023-04-01T02:33:59.914Z,98889.75
2023-04-01T02:36:45.081Z,98884.69
2023-04-01T02:39:30.965Z,98882.00
2023-04-01T02:42:16.005Z,98885.66
2023-04-01T02:45:01.053Z,98897.25
2023-04-01T02:47:46.003Z,98878.34
2023-04-01T02:50:31.057Z,98876.09
2023-04-01T02:53:16.517Z,98876.69
2023-04-01T02:56:01.489Z,98875.66
2023-04-01T02:58:47.133Z,98880.75
2023-04-01T03:01:32.428Z,98881.78
2023-04-01T03:04:17.525Z,98871.38
2023-04-01T03:07:02.453Z,98874.03
2023-04-01T03:09:47.321Z,98876.06
2023-04-01T03:12:32.048Z,98881.78
2023-04-01T03:15:17.459Z,98882.19
2023-04-01T03:18:02.580Z,98875.84
2023-04-01T03:20:48.097Z,98882.81
2023-04-01T03:23:32.849Z,98876.69
2023-04-01T03:26:18.055Z,98877.50
2023-04-01T03:29:03.257Z,98877.13
2023-04-01T03:31:48.263Z,98876.91
2023-04-01T03:34:33.010Z,98871.00
2023-04-01T03:37:17.985Z,98883.00
2023-04-01T03:40:03.004Z,98877.31
2023-04-01T03:42:48.153Z,98876.31
2023-04-01T03:45:33.318Z,98885.28
2023-04-01T03:48:19.178Z,98886.91
2023-04-01T03:51:07.945Z,98884.28
2023-04-01T03:53:53.224Z,98877.94
2023-04-01T03:56:38.754Z,98880.41
2023-04-01T03:59:23.591Z,98882.25
2023-04-01T04:02:08.820Z,98890.78
2023-04-01T04:04:53.583Z,98887.72
2023-04-01T04:07:38.558Z,98883.25
2023-04-01T04:10:24.134Z,98886.09
2023-04-01T04:13:09.017Z,98893.22
2023-04-01T04:15:54.910Z,98896.06
2023-04-01T04:18:40.131Z,98886.91
2023-04-01T04:21:25.073Z,98896.28
2023-04-01T04:24:10.221Z,98898.31
2023-04-01T04:26:55.294Z,98904.41
2023-04-01T04:29:40.338Z,98901.34
2023-04-01T04:32:25.356Z,98911.31
2023-04-01T04:35:10.709Z,98898.50
2023-04-01T04:37:55.451Z,98906.03
2023-04-01T04:40:42.204Z,98898.06
2023-04-01T04:43:27.196Z,98898.66
2023-04-01T04:46:12.398Z,98902.72
2023-04-01T04:48:57.209Z,98913.09
2023-04-01T04:51:42.379Z,98918.78
2023-04-01T04:54:27.475Z,98923.03
2023-04-01T04:57:12.555Z,98927.88
2023-04-01T04:59:57.428Z,98922.00
2023-04-01T05:02:42.683Z,98937.47
2023-04-01T05:05:27.750Z,98934.38
2023-04-01T05:08:12.783Z,98935.66
2023-04-01T05:10:57.459Z,98932.78
2023-04-01T05:13:43.693Z,98934.22
2023-04-01T05:16:28.666Z,98939.31
2023-04-01T05:19:13.789Z,98940.16
2023-04-01T05:21:58.548Z,98941.75
2023-04-01T05:24:43.618Z,98949.91
2023-04-01T05:27:28.473Z,98955.38
2023-04-01T05:30:13.417Z,98955.78
2023-04-01T05:32:58.604Z,98953.72
2023-04-01T05:35:43.501Z,98960.22
2023-04-01T05:38:28.294Z,98962.88
2023-04-01T05:41:13.620Z,98959.22
2023-04-01T05:43:58.828Z,98968.59
2023-04-01T05:46:43.818Z,98970.25
2023-04-01T05:49:29.052Z,98974.94
2023-04-01T05:52:14.701Z,98970.84
2023-04-01T05:55:01.101Z,98963.34
2023-04-01T05:57:47.378Z,98977.38
2023-04-01T06:00:32.187Z,98984.50
2023-04-01T06:03:17.390Z,98990.19
2023-04-01T06:06:02.745Z,98990.00
2023-04-01T06:08:47.567Z,98990.41
2023-04-01T06:11:52.428Z,98999.38
2023-04-01T06:14:57.405Z,98999.38
2023-04-01T06:18:08.824Z,99005.06
2023-04-01T06:21:08.731Z,99006.88
2023-04-01T06:24:15.810Z,99008.75
2023-04-01T06:27:17.096Z,99012.38
2023-04-01T06:30:34.254Z,99009.13
2023-04-01T06:33:47.515Z,99014.25
2023-04-01T06:37:02.588Z,99011.03
2023-04-01T06:40:26.549Z,99013.50
2023-04-01T06:43:44.323Z,99005.19
2023-04-01T06:46:48.148Z,99006.22
2023-04-01T06:49:38.278Z,99004.78
2023-04-01T06:52:42.284Z,99019.28
2023-04-01T06:55:38.676Z,99011.19
2023-04-01T06:58:34.376Z,99017.84
2023-04-01T07:01:25.048Z,99009.06
2023-04-01T07:04:36.981Z,99021.56
2023-04-01T07:07:33.184Z,99022.31
2023-04-01T07:10:33.670Z,99011.53
2023-04-01T07:13:28.275Z,99015.69
2023-04-01T07:16:18.978Z,99020.72
2023-04-01T07:19:10.830Z,99025.84
2023-04-01T07:21:58.686Z,99029.72
2023-04-01T07:24:46.205Z,99043.69
2023-04-01T07:27:31.417Z,99050.34
2023-04-01T07:30:19.445Z,99065.22
2023-04-01T07:33:17.599Z,99053.41
2023-04-01T07:36:24.047Z,99061.56
2023-04-01T07:39:16.122Z,99058.31
2023-04-01T07:42:06.922Z,99066.53
2023-04-01T07:45:07.308Z,99063.22
2023-04-01T07:47:59.472Z,99081.97
2023-04-01T07:51:00.363Z,99080.72
2023-04-01T07:54:03.653Z,99077.69
2023-04-01T07:57:30.929Z,99081.09
2023-04-01T08:00:25.435Z,99087.34
2023-04-01T08:03:26.187Z,99091.31
2023-04-01T08:06:25.369Z,99092.16
2023-04-01T08:09:54.860Z,99093.47
2023-04-01T08:12:56.545Z,99094.09
2023-04-01T08:16:05.916Z,99097.56
2023-04-01T08:19:08.029Z,99102.91
2023-04-01T08:21:56.430Z,99114.03
2023-04-01T08:24:48.169Z,99124.41
2023-04-01T08:27:40.249Z,99120.34
2023-04-01T08:30:28.993Z,99121.22
2023-04-01T08:33:24.836Z,99125.88
2023-04-01T08:36:16.205Z,99130.31
2023-04-01T08:39:17.120Z,99134.81
2023-04-01T08:42:02.144Z,99143.84
2023-04-01T08:45:25.008Z,99137.06
2023-04-01T08:48:31.999Z,99151.78
2023-04-01T08:51:54.598Z,99143.69
2023-04-01T08:54:57.360Z,99144.47
2023-04-01T08:57:57.769Z,99161.81
2023-04-01T09:00:42.417Z,99161.00
2023-04-01T09:03:45.256Z,99176.84
2023-04-01T09:06:38.461Z,99181.88
2023-04-01T09:09:53.660Z,99190.28
2023-04-01T09:12:57.556Z,99195.97
2023-04-01T09:16:06.937Z,99195.50
2023-04-01T09:19:37.089Z,99197.91
2023-04-01T09:22:50.961Z,99206.31
2023-04-01T09:25:52.383Z,99199.59
2023-04-01T09:28:58.027Z,99206.31
2023-04-01T09:32:15.397Z,99204.16
2023-04-01T09:35:41.661Z,99212.38
2023-04-01T09:38:45.596Z,99208.41
2023-04-01T09:41:33.006Z,99214.47
2023-04-01T09:44:33.178Z,99216.28
2023-04-01T09:47:55.770Z,99216.13
2023-04-01T09:51:01.728Z,99215.97
2023-04-01T09:53:57.432Z,99221.88
2023-04-01T09:56:57.924Z,99215.66
2023-04-01T10:00:05.932Z,99213.41
2023-04-01T10:03:14.395Z,99221.13
2023-04-01T10:06:37.869Z,99221.69
2023-04-01T10:09:25.764Z,99226.00
2023-04-01T10:12:51.710Z,99218.72
2023-04-01T10:16:14.566Z,99225.50
2023-04-01T10:19:21.338Z,99234.66
2023-04-01T10:22:29.693Z,99238.69
2023-04-01T10:25:32.942Z,99239.06
2023-04-01T10:28:43.065Z,99241.72
2023-04-01T10:31:45.481Z,99230.34
2023-04-01T10:35:01.228Z,99241.16
2023-04-01T10:38:17.176Z,99234.72
2023-04-01T10:41:26.210Z,99233.53
2023-04-01T10:44:29.501Z,99241.25
2023-04-01T10:47:52.169Z,99232.91
2023-04-01T10:50:45.069Z,99227.84
2023-04-01T10:53:51.378Z,99228.84
2023-04-01T10:57:14.005Z,99251.38
2023-04-01T11:00:20.627Z,99254.69
2023-04-01T11:03:47.418Z,99261.00
2023-04-01T11:07:10.281Z,99262.69
2023-04-01T11:10:32.131Z,99268.03
2023-04-01T11:13:48.599Z,99277.25
2023-04-01T11:16:54.309Z,99279.84
2023-04-01T11:19:57.703Z,99273.44
2023-04-01T11:23:15.420Z,99278.19
2023-04-01T11:26:30.474Z,99279.00
2023-04-01T11:29:53.382Z,99286.34
2023-04-01T11:33:23.529Z,99278.06
2023-04-01T11:36:56.527Z,99287.47
2023-04-01T11:40:24.284Z,99281.97
2023-04-01T11:43:32.445Z,99283.84
2023-04-01T11:46:29.593Z,99281.38
2023-04-01T11:49:34.310Z,99281.97
2023-04-01T11:52:33.224Z,99301.31
2023-04-01T11:55:38.782Z,99301.84
2023-04-01T11:58:37.701Z,99309.00
2023-04-01T12:01:48.961Z,99314.72
2023-04-01T12:04:44.623Z,99323.44
2023-04-01T12:08:07.143Z,99321.03
2023-04-01T12:11:21.750Z,99316.19
2023-04-01T12:14:17.883Z,99312.13
2023-04-01T12:17:24.704Z,99313.59
2023-04-01T12:20:31.291Z,99306.50
2023-04-01T12:23:29.250Z,99319.38
2023-04-01T12:26:42.354Z,99328.50
2023-04-01T12:29:48.812Z,99326.88
2023-04-01T12:33:10.655Z,99329.72
2023-04-01T12:36:28.846Z,99326.81
2023-04-01T12:39:54.217Z,99343.16
2023-04-01T12:42:52.048Z,99340.94
2023-04-01T12:45:58.840Z,99341.34
2023-04-01T12:49:02.188Z,99346.66
2023-04-01T12:52:03.503Z,99341.66
2023-04-01T12:55:10.240Z,99351.84
2023-04-01T12:58:07.554Z,99336.50
2023-04-01T13:01:09.612Z,99354.03
2023-04-01T13:04:03.017Z,99351.81
2023-04-01T13:07:24.324Z,99350.41
2023-04-01T13:10:18.408Z,99350.81
2023-04-01T13:13:30.457Z,99356.94
2023-04-01T13:16:21.611Z,99356.78
2023-04-01T13:19:26.991Z,99352.03
2023-04-01T13:22:30.874Z,99370.63
2023-04-01T13:26:13.039Z,99372.66
2023-04-01T13:29:24.339Z,99373.72
2023-04-01T13:32:43.846Z,99377.53
2023-04-01T13:35:46.993Z,99381.56
2023-04-01T13:38:56.394Z,99390.44
2023-04-01T13:42:15.822Z,99405.56
2023-04-01T13:45:10.730Z,99395.97
2023-04-01T13:48:01.929Z,99397.25
2023-04-01T13:51:16.881Z,99393.91
2023-04-01T13:54:09.000Z,99394.09
2023-04-01T13:57:33.981Z,99399.28
2023-04-01T14:00:37.852Z,99417.44
2023-04-01T14:03:43.992Z,99413.53
2023-04-01T14:06:35.277Z,99415.69
2023-04-01T14:09:46.214Z,99408.38
2023-04-01T14:12:48.704Z,99412.19
2023-04-01T14:16:17.958Z,99422.09
2023-04-01T14:19:17.763Z,99431.94
2023-04-01T14:22:56.809Z,99443.66
2023-04-01T14:26:05.971Z,99443.09
2023-04-01T14:29:12.861Z,99446.97
2023-04-01T14:32:34.953Z,99455.88
2023-04-01T14:35:36.867Z,99452.00
2023-04-01T14:38:29.582Z,99458.19
2023-04-01T14:41:34.135Z,99450.06
2023-04-01T14:44:49.993Z,99458.34
2023-04-01T14:47:49.310Z,99458.56
2023-04-01T14:50:47.108Z,99449.22
2023-04-01T14:53:39.523Z,99439.44
2023-04-01T14:56:50.341Z,99445.16
2023-04-01T14:59:40.863Z,99444.53
2023-04-01T15:02:53.990Z,99455.22
2023-04-01T15:05:52.944Z,99461.28
2023-04-01T15:08:58.874Z,99464.16
2023-04-01T15:12:13.779Z,99466.38
2023-04-01T15:15:03.916Z,99469.94
2023-04-01T15:18:36.336Z,99474.00
2023-04-01T15:22:02.441Z,99480.28
2023-04-01T15:25:20.884Z,99480.72
2023-04-01T15:28:49.136Z,99481.50
2023-04-01T15:31:46.499Z,99502.56
2023-04-01T15:34:46.633Z,99502.13
2023-04-01T15:37:31.814Z,99495.97
2023-04-01T15:40:25.403Z,99497.81
2023-04-01T15:43:42.159Z,99512.56
2023-04-01T15:46:47.518Z,99514.28
2023-04-01T15:49:43.173Z,99511.28
2023-04-01T15:52:53.445Z,99517.00
2023-04-01T15:56:01.843Z,99522.06
2023-04-01T15:59:05.376Z,99525.34
2023-04-01T16:02:22.573Z,99533.97
2023-04-01T16:05:28.491Z,99543.75
2023-04-01T16:08:42.091Z,99537.22
2023-04-01T16:11:48.672Z,99532.75
2023-04-01T16:14:53.730Z,99546.00
2023-04-01T16:18:03.404Z,99545.47
2023-04-01T16:20:52.799Z,99557.50
2023-04-01T16:23:44.383Z,99563.13
2023-04-01T16:26:44.180Z,99570.59
2023-04-01T16:29:54.109Z,99574.31
2023-04-01T16:32:47.718Z,99580.56
2023-04-01T16:35:53.774Z,99577.88
2023-04-01T16:39:07.975Z,99582.22
2023-04-01T16:42:10.222Z,99584.06
2023-04-01T16:45:07.518Z,99595.78
2023-04-01T16:47:58.817Z,99600.38
2023-04-01T16:50:53.207Z,99597.97
2023-04-01T16:53:48.894Z,99607.94
2023-04-01T16:56:54.770Z,99610.91
2023-04-01T17:00:16.773Z,99626.81
2023-04-01T17:03:01.660Z,99622.63
2023-04-01T17:06:18.480Z,99632.75
2023-04-01T17:09:25.262Z,99638.59
2023-04-01T17:12:34.316Z,99628.13
2023-04-01T17:15:42.686Z,99639.97
2023-04-01T17:18:36.820Z,99643.00
2023-04-01T17:21:34.096Z,99640.81
2023-04-01T17:24:32.662Z,99648.34
2023-04-01T17:27:41.106Z,99671.34
2023-04-01T17:30:35.359Z,99680.28
2023-04-01T17:33:58.596Z,99682.56
2023-04-01T17:37:18.422Z,99693.59
2023-04-01T17:40:30.769Z,99701.44
2023-04-01T17:43:43.966Z,99707.22
2023-04-01T17:46:50.060Z,99720.34
2023-04-01T17:49:42.794Z,99713.94
2023-04-01T17:52:49.529Z,99715.59
2023-04-01T17:55:47.012Z,99729.72
2023-04-01T17:58:47.189Z,99736.94
2023-04-01T18:02:12.808Z,99740.28
2023-04-01T18:05:35.079Z,99749.97
2023-04-01T18:08:51.141Z,99756.97
2023-04-01T18:11:55.189Z,99759.63
2023-04-01T18:15:01.363Z,99764.09
2023-04-01T18:17:56.648Z,99759.16
2023-04-01T18:20:47.747Z,99777.03
2023-04-01T18:24:02.202Z,99777.19
2023-04-01T18:27:00.168Z,99778.56
2023-04-01T18:30:15.509Z,99781.22
2023-04-01T18:33:10.752Z,99787.69
2023-04-01T18:36:09.051Z,99781.91
2023-04-01T18:39:00.837Z,99795.13
2023-04-01T18:42:18.050Z,99797.50
2023-04-01T18:45:18.624Z,99796.88
2023-04-01T18:48:16.318Z,99808.28
2023-04-01T18:51:11.264Z,99817.03
2023-04-01T18:54:06.300Z,99820.34
2023-04-01T18:56:51.698Z,99816.22
2023-04-01T18:59:44.120Z,99819.06
2023-04-01T19:02:41.856Z,99833.78
2023-04-01T19:05:37.675Z,99841.25
2023-04-01T19:08:30.625Z,99832.13
2023-04-01T19:11:35.624Z,99846.38
2023-04-01T19:14:49.436Z,99847.50
2023-04-01T19:18:08.890Z,99844.53
2023-04-01T19:21:06.875Z,99843.72
2023-04-01T19:24:14.574Z,99854.13
2023-04-01T19:27:19.048Z,99857.78
2023-04-01T19:30:16.248Z,99863.59
2023-04-01T19:33:29.101Z,99860.28
2023-04-01T19:36:32.722Z,99864.25
2023-04-01T19:39:36.250Z,99866.41
2023-04-01T19:42:51.811Z,99867.91
2023-04-01T19:45:39.459Z,99877.47
2023-04-01T19:48:42.094Z,99876.81
2023-04-01T19:51:46.785Z,99878.81
2023-04-01T19:54:57.406Z,99882.75
2023-04-01T19:58:13.667Z,99883.63
2023-04-01T20:01:00.800Z,99899.78
2023-04-01T20:03:51.593Z,99890.22
2023-04-01T20:07:00.968Z,99903.25
2023-04-01T20:09:52.094Z,99907.88
2023-04-01T20:12:48.596Z,99915.00
2023-04-01T20:15:41.395Z,99914.00
2023-04-01T20:18:50.218Z,99931.84
2023-04-01T20:21:48.024Z,99932.34
2023-04-01T20:24:45.558Z,99921.13
2023-04-01T20:27:37.492Z,99935.47
2023-04-01T20:30:44.571Z,99949.84
2023-04-01T20:33:54.821Z,99949.66
2023-04-01T20:37:01.451Z,99950.00
2023-04-01T20:39:57.849Z,99948.56
2023-04-01T20:43:08.533Z,99949.06
2023-04-01T20:46:17.626Z,99955.84
2023-04-01T20:49:24.465Z,99958.31
2023-04-01T20:52:15.439Z,99962.59
2023-04-01T20:55:28.224Z,99963.78
2023-04-01T20:58:42.442Z,99971.84
2023-04-01T21:01:47.910Z,99972.38
2023-04-01T21:04:47.864Z,99963.94
2023-04-01T21:07:43.763Z,99971.38
2023-04-01T21:10:47.736Z,99974.50
2023-04-01T21:13:42.078Z,99978.66
2023-04-01T21:16:58.199Z,99980.66
2023-04-01T21:20:00.686Z,99979.66
2023-04-01T21:23:09.314Z,99984.44
2023-04-01T21:26:06.683Z,99990.06
2023-04-01T21:29:25.368Z,99990.75
2023-04-01T21:32:33.186Z,99994.69
2023-04-01T21:35:25.902Z,99995.34
2023-04-01T21:38:23.158Z,100001.13
2023-04-01T21:41:33.705Z,100000.63
2023-04-01T21:44:33.909Z,100002.13
2023-04-01T21:47:37.741Z,100001.66
2023-04-01T21:50:55.612Z,100009.06
2023-04-01T21:53:49.542Z,100007.91
2023-04-01T21:57:01.213Z,100017.19
2023-04-01T22:00:16.652Z,100010.22
2023-04-01T22:04:05.746Z,100029.03
2023-04-01T22:07:18.601Z,100021.13
2023-04-01T22:10:19.910Z,100023.44
2023-04-01T22:13:14.452Z,100029.56
2023-04-01T22:16:22.940Z,100027.75
2023-04-01T22:19:20.857Z,100037.81
2023-04-01T22:22:32.040Z,100032.66
2023-04-01T22:25:27.089Z,100033.03
2023-04-01T22:28:51.510Z,100041.28
2023-04-01T22:31:45.560Z,100036.78
2023-04-01T22:34:46.193Z,100047.22
2023-04-01T22:37:51.974Z,100049.03
2023-04-01T22:40:59.127Z,100053.00
2023-04-01T22:43:45.269Z,100051.16
2023-04-01T22:46:44.736Z,100061.25
2023-04-01T22:49:42.621Z,100056.28
2023-04-01T22:52:36.270Z,100060.94
2023-04-01T22:55:26.280Z,100066.53
2023-04-01T22:58:16.595Z,100065.84
2023-04-01T23:01:08.192Z,100071.81
2023-04-01T23:03:53.588Z,100078.41
2023-04-01T23:06:47.533Z,100077.75
2023-04-01T23:09:34.952Z,100081.88
2023-04-01T23:12:21.837Z,100080.41
2023-04-01T23:15:13.784Z,100085.19
2023-04-01T23:18:10.610Z,100089.81
2023-04-01T23:21:06.363Z,100090.13
2023-04-01T23:24:06.114Z,100089.31
2023-04-01T23:26:59.733Z,100098.88
2023-04-01T23:29:44.839Z,100100.56
2023-04-01T23:32:30.185Z,100111.91
2023-04-01T23:35:17.886Z,100114.75
2023-04-01T23:38:03.175Z,100114.59
2023-04-01T23:40:51.295Z,100123.19
2023-04-01T23:43:42.963Z,100120.53
2023-04-01T23:46:31.111Z,100132.75
2023-04-01T23:49:22.156Z,100135.22
2023-04-01T23:52:23.928Z,100137.69
2023-04-01T23:55:11.866Z,100151.56
2023-04-01T23:58:15.975Z,100158.84
